Time,TemperatureF,DewpointF,PressureIn,WindDirection,WindDirectionDegrees,WindSpeedMPH,WindSpeedGustMPH,Humidity,HourlyPrecipIn,Conditions,Clouds,dailyrainin,SolarRadiationWatts/m^2,SoftwareType,DateUTC
2013-01-04 00:00:00,31.6,29.8,30.18,North,-999,0.0,0.0,93,0.00,,,-99.99,0,WeatherLink 5.7,2013-01-04 08:00:00,
2013-01-04 00:09:00,31.6,29.5,30.18,West,281,0.0,0.0,92,0.00,,,0.00,,Wunderground v.1.13,2013-01-04 08:09:00,
2013-01-04 00:14:00,31.5,29.4,30.18,West,281,0.0,0.0,92,0.00,,,0.00,,Wunderground v.1.13,2013-01-04 08:14:00,
2013-01-04 00:15:00,31.5,30.0,30.18,North,-999,0.0,0.0,94,0.00,,,-99.99,0,WeatherLink 5.7,2013-01-04 08:15:00,
2013-01-04 00:19:00,31.5,29.4,30.18,West,281,0.0,0.0,92,0.00,,,0.00,,Wunderground v.1.13,2013-01-04 08:19:00,
2013-01-04 00:24:00,31.6,29.8,30.18,West,281,0.0,0.0,93,0.00,,,0.00,,Wunderground v.1.13,2013-01-04 08:24:00,
2013-01-04 00:30:00,31.5,30.0,30.17,North,-999,0.0,0.0,94,0.00,,,-99.99,0,WeatherLink 5.7,2013-01-04 08:30:00,
2013-01-04 00:34:00,31.6,29.8,30.18,West,281,0.0,0.0,93,0.00,,,0.00,,Wunderground v.1.13,2013-01-04 08:34:00,
2013-01-04 00:39:00,31.6,29.8,30.18,West,281,0.0,0.0,93,0.00,,,0.00,,Wunderground v.1.13,2013-01-04 08:39:00,
2013-01-04 00:45:00,31.6,29.8,30.18,West,281,0.0,0.0,93,0.00,,,0.00,,Wunderground v.1.13,2013-01-04 08:45:00,
2013-01-04 00:50:00,31.6,29.8,30.18,West,281,0.0,0.0,93,0.00,,,0.00,,Wunderground v.1.13,2013-01-04 08:50:00,
2013-01-04 00:55:00,31.6,29.8,30.18,West,281,0.0,0.0,93,0.00,,,0.00,,Wunderground v.1.13,2013-01-04 08:55:00,
2013-01-04 01:05:00,31.5,29.7,30.18,West,281,0.0,0.0,93,0.00,,,0.00,,Wunderground v.1.13,2013-01-04 09:05:00,
2013-01-04 01:15:00,31.5,30.0,30.18,West,281,0.0,0.0,94,0.00,,,0.00,,Wunderground v.1.13,2013-01-04 09:15:00,
2013-01-04 01:20:00,31.5,30.0,30.18,West,281,0.0,0.0,94,0.00,,,0.00,,Wunderground v.1.13,2013-01-04 09:20:00,
2013-01-04 01:25:00,31.5,30.0,30.18,West,281,0.0,0.0,94,0.00,,,0.00,,Wunderground v.1.13,2013-01-04 09:25:00,
2013-01-04 01:30:00,31.5,30.0,30.18,West,281,0.0,0.0,94,0.00,,,0.00,,Wunderground v.1.13,2013-01-04 09:30:00,
2013-01-04 01:39:00,31.3,29.8,30.18,West,281,0.0,0.0,94,0.00,,,0.00,,Wunderground v.1.13,2013-01-04 09:39:00,
2013-01-04 01:44:00,31.3,29.8,30.17,West,281,0.0,0.0,94,0.00,,,0.00,,Wunderground v.1.13,2013-01-04 09:44:00,
2013-01-04 01:45:00,30.9,29.4,30.17,North,-999,0.0,0.0,94,0.00,,,-99.99,0,WeatherLink 5.7,2013-01-04 09:45:00,
2013-01-04 01:49:00,31.3,29.8,30.17,West,281,0.0,0.0,94,0.00,,,0.00,,Wunderground v.1.13,2013-01-04 09:49:00,
2013-01-04 01:54:00,31.2,29.7,30.17,West,281,0.0,0.0,94,0.00,,,0.00,,Wunderground v.1.13,2013-01-04 09:54:00,
2013-01-04 01:59:00,31.2,29.7,30.18,West,281,0.0,0.0,94,0.00,,,0.00,,Wunderground v.1.13,2013-01-04 09:59:00,
2013-01-04 02:09:00,31.2,29.7,30.18,West,281,0.0,0.0,94,0.00,,,0.00,,Wunderground v.1.13,2013-01-04 10:09:00,
2013-01-04 02:15:00,31.0,29.5,30.17,West,281,0.0,0.0,94,0.00,,,0.00,,Wunderground v.1.13,2013-01-04 10:15:00,
2013-01-04 02:20:00,31.0,29.5,30.17,West,281,0.0,0.0,94,0.00,,,0.00,,Wunderground v.1.13,2013-01-04 10:20:00,
2013-01-04 02:29:00,31.0,29.5,30.17,West,281,0.0,0.0,94,0.00,,,0.00,,Wunderground v.1.13,2013-01-04 10:29:00,
2013-01-04 02:30:00,30.1,28.6,30.17,North,-999,0.0,0.0,94,0.00,,,-99.99,0,WeatherLink 5.7,2013-01-04 10:30:00,
2013-01-04 02:34:00,31.0,29.5,30.17,West,281,0.0,0.0,94,0.00,,,0.00,,Wunderground v.1.13,2013-01-04 10:34:00,
2013-01-04 02:39:00,31.0,29.5,30.17,West,281,0.0,0.0,94,0.00,,,0.00,,Wunderground v.1.13,2013-01-04 10:39:00,
2013-01-04 02:45:00,30.1,28.6,30.17,North,-999,0.0,0.0,94,0.00,,,-99.99,0,WeatherLink 5.7,2013-01-04 10:45:00,
2013-01-04 02:49:00,30.9,29.4,30.17,West,281,0.0,0.0,94,0.00,,,0.00,,Wunderground v.1.13,2013-01-04 10:49:00,
2013-01-04 02:54:00,30.7,29.2,30.17,West,281,0.0,0.0,94,0.00,,,0.00,,Wunderground v.1.13,2013-01-04 10:54:00,
2013-01-04 02:59:00,30.7,29.2,30.17,West,281,0.0,0.0,94,0.00,,,0.00,,Wunderground v.1.13,2013-01-04 10:59:00,
2013-01-04 03:00:00,30.1,28.6,30.17,North,-999,0.0,0.0,94,0.00,,,-99.99,0,WeatherLink 5.7,2013-01-04 11:00:00,
2013-01-04 03:09:00,30.4,28.9,30.17,West,281,0.0,0.0,94,0.00,,,0.00,,Wunderground v.1.13,2013-01-04 11:09:00,
2013-01-04 03:14:00,30.3,28.8,30.17,West,281,0.0,0.0,94,0.00,,,0.00,,Wunderground v.1.13,2013-01-04 11:14:00,
2013-01-04 03:15:00,30.0,28.5,30.16,North,-999,0.0,0.0,94,0.00,,,-99.99,0,WeatherLink 5.7,2013-01-04 11:15:00,
2013-01-04 03:24:00,30.1,28.6,30.17,West,281,0.0,0.0,94,0.00,,,0.00,,Wunderground v.1.13,2013-01-04 11:24:00,
2013-01-04 03:29:00,30.1,28.6,30.17,West,281,0.0,0.0,94,0.00,,,0.00,,Wunderground v.1.13,2013-01-04 11:29:00,
2013-01-04 03:30:00,30.0,28.5,30.16,North,-999,0.0,0.0,94,0.00,,,-99.99,0,WeatherLink 5.7,2013-01-04 11:30:00,
2013-01-04 03:39:00,30.1,28.6,30.17,West,281,0.0,0.0,94,0.00,,,0.00,,Wunderground v.1.13,2013-01-04 11:39:00,
2013-01-04 03:44:00,30.1,28.6,30.17,West,281,0.0,0.0,94,0.00,,,0.00,,Wunderground v.1.13,2013-01-04 11:44:00,
2013-01-04 03:45:00,30.0,28.5,30.15,North,-999,0.0,0.0,94,0.00,,,-99.99,0,WeatherLink 5.7,2013-01-04 11:45:00,
2013-01-04 03:49:00,30.1,28.6,30.17,West,281,0.0,0.0,94,0.00,,,0.00,,Wunderground v.1.13,2013-01-04 11:49:00,
2013-01-04 03:59:00,30.1,28.6,30.17,West,281,0.0,0.0,94,0.00,,,0.00,,Wunderground v.1.13,2013-01-04 11:59:00,
2013-01-04 04:00:00,30.0,28.5,30.16,North,-999,0.0,0.0,94,0.00,,,-99.99,0,WeatherLink 5.7,2013-01-04 12:00:00,
2013-01-04 04:04:00,30.1,28.6,30.17,West,281,0.0,0.0,94,0.00,,,0.00,,Wunderground v.1.13,2013-01-04 12:04:00,
2013-01-04 04:09:00,30.1,28.6,30.17,West,281,0.0,0.0,94,0.00,,,0.00,,Wunderground v.1.13,2013-01-04 12:09:00,
2013-01-04 04:14:00,30.0,28.5,30.16,West,281,0.0,0.0,94,0.00,,,0.00,,Wunderground v.1.13,2013-01-04 12:14:00,
2013-01-04 04:15:00,29.8,28.5,30.16,North,-999,0.0,0.0,95,0.00,,,-99.99,0,WeatherLink 5.7,2013-01-04 12:15:00,
2013-01-04 04:19:00,30.0,28.5,30.16,West,281,0.0,0.0,94,0.00,,,0.00,,Wunderground v.1.13,2013-01-04 12:19:00,
2013-01-04 04:29:00,30.0,28.5,30.16,West,281,0.0,0.0,94,0.00,,,0.00,,Wunderground v.1.13,2013-01-04 12:29:00,
2013-01-04 04:30:00,29.8,28.5,30.17,North,-999,0.0,0.0,95,0.00,,,-99.99,0,WeatherLink 5.7,2013-01-04 12:30:00,
2013-01-04 04:39:00,30.0,28.5,30.16,West,281,0.0,0.0,94,0.00,,,0.00,,Wunderground v.1.13,2013-01-04 12:39:00,
2013-01-04 04:44:00,30.0,28.5,30.15,West,281,0.0,0.0,94,0.00,,,0.00,,Wunderground v.1.13,2013-01-04 12:44:00,
2013-01-04 04:45:00,29.7,28.4,30.17,North,-999,0.0,0.0,95,0.00,,,-99.99,0,WeatherLink 5.7,2013-01-04 12:45:00,
2013-01-04 04:49:00,30.0,28.5,30.15,West,281,0.0,0.0,94,0.00,,,0.00,,Wunderground v.1.13,2013-01-04 12:49:00,
2013-01-04 04:54:00,30.0,28.5,30.15,West,281,0.0,0.0,94,0.00,,,0.00,,Wunderground v.1.13,2013-01-04 12:54:00,
2013-01-04 05:00:00,29.8,28.5,30.17,North,-999,0.0,0.0,95,0.00,,,-99.99,0,WeatherLink 5.7,2013-01-04 13:00:00,
2013-01-04 05:04:00,30.0,28.7,30.16,West,281,0.0,0.0,95,0.00,,,0.00,,Wunderground v.1.13,2013-01-04 13:04:00,
2013-01-04 05:09:00,29.8,28.3,30.16,West,281,0.0,0.0,94,0.00,,,0.00,,Wunderground v.1.13,2013-01-04 13:09:00,
2013-01-04 05:14:00,29.8,28.5,30.16,West,281,0.0,0.0,95,0.00,,,0.00,,Wunderground v.1.13,2013-01-04 13:14:00,
2013-01-04 05:15:00,29.8,28.5,30.18,North,-999,0.0,0.0,95,0.00,,,-99.99,0,WeatherLink 5.7,2013-01-04 13:15:00,
2013-01-04 05:19:00,29.8,28.3,30.16,West,281,0.0,0.0,94,0.00,,,0.00,,Wunderground v.1.13,2013-01-04 13:19:00,
2013-01-04 05:24:00,29.8,28.5,30.16,West,281,0.0,0.0,95,0.00,,,0.00,,Wunderground v.1.13,2013-01-04 13:24:00,
2013-01-04 05:29:00,29.8,28.5,30.17,West,281,0.0,0.0,95,0.00,,,0.00,,Wunderground v.1.13,2013-01-04 13:29:00,
2013-01-04 05:30:00,29.8,28.5,30.19,North,-999,0.0,0.0,95,0.00,,,-99.99,0,WeatherLink 5.7,2013-01-04 13:30:00,
2013-01-04 05:39:00,29.8,28.5,30.17,West,281,0.0,0.0,95,0.00,,,0.00,,Wunderground v.1.13,2013-01-04 13:39:00,
2013-01-04 05:44:00,29.8,28.5,30.17,West,281,0.0,0.0,95,0.00,,,0.00,,Wunderground v.1.13,2013-01-04 13:44:00,
2013-01-04 05:45:00,30.0,28.7,30.19,North,-999,0.0,0.0,95,0.00,,,-99.99,0,WeatherLink 5.7,2013-01-04 13:45:00,
2013-01-04 05:49:00,29.7,28.4,30.17,West,281,0.0,0.0,95,0.00,,,0.00,,Wunderground v.1.13,2013-01-04 13:49:00,
2013-01-04 05:54:00,29.8,28.5,30.17,West,281,0.0,0.0,95,0.00,,,0.00,,Wunderground v.1.13,2013-01-04 13:54:00,
2013-01-04 05:59:00,29.8,28.5,30.17,West,281,0.0,0.0,95,0.00,,,0.00,,Wunderground v.1.13,2013-01-04 13:59:00,
2013-01-04 06:00:00,29.7,28.4,30.19,North,-999,0.0,0.0,95,0.00,,,-99.99,0,WeatherLink 5.7,2013-01-04 14:00:00,
2013-01-04 06:04:00,29.8,28.5,30.17,West,281,0.0,0.0,95,0.00,,,0.00,,Wunderground v.1.13,2013-01-04 14:04:00,
2013-01-04 06:09:00,29.8,28.5,30.17,West,281,0.0,0.0,95,0.00,,,0.00,,Wunderground v.1.13,2013-01-04 14:09:00,
2013-01-04 06:15:00,29.5,28.2,30.19,North,-999,0.0,0.0,95,0.00,,,-99.99,0,WeatherLink 5.7,2013-01-04 14:15:00,
2013-01-04 06:19:00,29.8,28.5,30.18,West,281,0.0,0.0,95,0.00,,,0.00,,Wunderground v.1.13,2013-01-04 14:19:00,
2013-01-04 06:24:00,29.8,28.5,30.18,West,281,0.0,0.0,95,0.00,,,0.00,,Wunderground v.1.13,2013-01-04 14:24:00,
2013-01-04 06:29:00,29.8,28.5,30.19,West,281,0.0,0.0,95,0.00,,,0.00,,Wunderground v.1.13,2013-01-04 14:29:00,
2013-01-04 06:30:00,29.4,28.1,30.19,North,-999,0.0,0.0,95,0.00,,,-99.99,0,WeatherLink 5.7,2013-01-04 14:30:00,
2013-01-04 06:39:00,30.0,28.7,30.19,West,281,0.0,0.0,95,0.00,,,0.00,,Wunderground v.1.13,2013-01-04 14:39:00,
2013-01-04 06:44:00,30.0,28.7,30.19,West,281,0.0,0.0,95,0.00,,,0.00,,Wunderground v.1.13,2013-01-04 14:44:00,
2013-01-04 06:45:00,29.3,28.0,30.19,North,-999,0.0,0.0,95,0.00,,,-99.99,4,WeatherLink 5.7,2013-01-04 14:45:00,
2013-01-04 06:54:00,29.8,28.5,30.19,West,281,0.0,0.0,95,0.00,,,0.00,,Wunderground v.1.13,2013-01-04 14:54:00,
2013-01-04 06:59:00,29.7,28.4,30.19,West,281,0.0,0.0,95,0.00,,,0.00,,Wunderground v.1.13,2013-01-04 14:59:00,
2013-01-04 07:00:00,29.3,28.0,30.19,North,-999,0.0,0.0,95,0.00,,,-99.99,7,WeatherLink 5.7,2013-01-04 15:00:00,
2013-01-04 07:09:00,29.7,28.4,30.19,West,281,0.0,0.0,95,0.00,,,0.00,,Wunderground v.1.13,2013-01-04 15:09:00,
2013-01-04 07:14:00,29.5,28.2,30.19,West,281,0.0,0.0,95,0.00,,,0.00,,Wunderground v.1.13,2013-01-04 15:14:00,
2013-01-04 07:15:00,29.4,28.1,30.19,North,-999,0.0,0.0,95,0.00,,,-99.99,11,WeatherLink 5.7,2013-01-04 15:15:00,
2013-01-04 07:19:00,29.5,28.2,30.19,West,281,0.0,0.0,95,0.00,,,0.00,,Wunderground v.1.13,2013-01-04 15:19:00,
2013-01-04 07:24:00,29.4,28.1,30.19,West,281,0.0,0.0,95,0.00,,,0.00,,Wunderground v.1.13,2013-01-04 15:24:00,
2013-01-04 07:29:00,29.4,28.1,30.19,West,281,0.0,0.0,95,0.00,,,0.00,,Wunderground v.1.13,2013-01-04 15:29:00,
2013-01-04 07:30:00,29.7,28.4,30.20,North,-999,0.0,0.0,95,0.00,,,-99.99,13,WeatherLink 5.7,2013-01-04 15:30:00,
2013-01-04 07:39:00,29.3,28.0,30.19,West,281,0.0,0.0,95,0.00,,,0.00,,Wunderground v.1.13,2013-01-04 15:39:00,
2013-01-04 07:44:00,29.3,28.0,30.19,West,281,0.0,0.0,95,0.00,,,0.00,,Wunderground v.1.13,2013-01-04 15:44:00,
2013-01-04 07:45:00,30.1,28.8,30.20,North,-999,0.0,0.0,95,0.00,,,-99.99,15,WeatherLink 5.7,2013-01-04 15:45:00,
2013-01-04 07:49:00,29.3,28.0,30.19,West,281,0.0,0.0,95,0.00,,,0.00,,Wunderground v.1.13,2013-01-04 15:49:00,
2013-01-04 07:59:00,29.1,27.8,30.19,West,281,0.0,0.0,95,0.00,,,0.00,,Wunderground v.1.13,2013-01-04 15:59:00,
2013-01-04 08:00:00,30.9,29.9,30.20,North,-999,0.0,0.0,96,0.00,,,-99.99,17,WeatherLink 5.7,2013-01-04 16:00:00,
2013-01-04 08:09:00,29.3,28.0,30.19,West,281,0.0,0.0,95,0.00,,,0.00,,Wunderground v.1.13,2013-01-04 16:09:00,
2013-01-04 08:14:00,29.4,28.1,30.19,West,281,0.0,0.0,95,0.00,,,0.00,,Wunderground v.1.13,2013-01-04 16:14:00,
2013-01-04 08:15:00,31.9,30.9,30.20,North,-999,0.0,0.0,96,0.00,,,-99.99,18,WeatherLink 5.7,2013-01-04 16:15:00,
2013-01-04 08:19:00,29.4,28.1,30.19,West,281,0.0,0.0,95,0.00,,,0.00,,Wunderground v.1.13,2013-01-04 16:19:00,
2013-01-04 08:24:00,29.5,28.2,30.19,West,281,0.0,0.0,95,0.00,,,0.00,,Wunderground v.1.13,2013-01-04 16:24:00,
2013-01-04 08:29:00,29.7,28.4,30.20,West,281,0.0,0.0,95,0.00,,,0.00,,Wunderground v.1.13,2013-01-04 16:29:00,
2013-01-04 08:30:00,33.5,32.5,30.21,North,-999,0.0,0.0,96,0.00,,,-99.99,20,WeatherLink 5.7,2013-01-04 16:30:00,
2013-01-04 08:39:00,30.0,28.7,30.20,West,281,0.0,0.0,95,0.00,,,0.00,,Wunderground v.1.13,2013-01-04 16:39:00,
2013-01-04 08:44:00,30.1,28.8,30.20,West,281,0.0,0.0,95,0.00,,,0.00,,Wunderground v.1.13,2013-01-04 16:44:00,
2013-01-04 08:45:00,35.2,34.2,30.21,North,-999,0.0,0.0,96,0.00,,,-99.99,23,WeatherLink 5.7,2013-01-04 16:45:00,
2013-01-04 08:49:00,30.4,29.1,30.20,West,281,0.0,0.0,95,0.00,,,0.00,,Wunderground v.1.13,2013-01-04 16:49:00,
2013-01-04 08:54:00,30.7,29.4,30.20,West,281,0.0,0.0,95,0.00,,,0.00,,Wunderground v.1.13,2013-01-04 16:54:00,
2013-01-04 08:59:00,30.9,29.6,30.20,West,281,0.0,0.0,95,0.00,,,0.00,,Wunderground v.1.13,2013-01-04 16:59:00,
2013-01-04 09:00:00,37.2,36.4,30.21,North,-999,0.0,0.0,97,0.00,,,-99.99,37,WeatherLink 5.7,2013-01-04 17:00:00,
2013-01-04 09:09:00,31.5,30.5,30.20,West,281,0.0,0.0,96,0.00,,,0.00,,Wunderground v.1.13,2013-01-04 17:09:00,
2013-01-04 09:14:00,31.8,30.8,30.20,West,281,0.0,0.0,96,0.00,,,0.00,,Wunderground v.1.13,2013-01-04 17:14:00,
2013-01-04 09:15:00,38.9,38.1,30.20,North,-999,0.0,0.0,97,0.00,,,-99.99,41,WeatherLink 5.7,2013-01-04 17:15:00,
2013-01-04 09:19:00,32.4,31.4,30.20,West,281,0.0,0.0,96,0.00,,,0.00,,Wunderground v.1.13,2013-01-04 17:19:00,
2013-01-04 09:24:00,32.9,31.9,30.20,West,281,0.0,0.0,96,0.00,,,0.00,,Wunderground v.1.13,2013-01-04 17:24:00,
2013-01-04 09:29:00,33.5,32.5,30.20,West,281,0.0,0.0,96,0.00,,,0.00,,Wunderground v.1.13,2013-01-04 17:29:00,
2013-01-04 09:30:00,40.8,40.0,30.20,West,270,0.0,2.0,97,0.00,,,-99.99,244,WeatherLink 5.7,2013-01-04 17:30:00,
2013-01-04 09:34:00,34.0,33.0,30.21,West,281,0.0,0.0,96,0.00,,,0.00,,Wunderground v.1.13,2013-01-04 17:34:00,
2013-01-04 09:44:00,35.0,34.0,30.21,West,281,0.0,0.0,96,0.00,,,0.00,,Wunderground v.1.13,2013-01-04 17:44:00,
2013-01-04 09:45:00,42.9,40.2,30.19,West,270,0.0,2.0,90,0.00,,,-99.99,120,WeatherLink 5.7,2013-01-04 17:45:00,
2013-01-04 09:49:00,35.6,34.6,30.21,West,281,0.0,0.0,96,0.00,,,0.00,,Wunderground v.1.13,2013-01-04 17:49:00,
2013-01-04 09:54:00,36.3,35.3,30.21,West,281,0.0,0.0,96,0.00,,,0.00,,Wunderground v.1.13,2013-01-04 17:54:00,
2013-01-04 09:59:00,37.0,36.2,30.21,West,281,0.0,0.0,97,0.00,,,0.00,,Wunderground v.1.13,2013-01-04 17:59:00,
2013-01-04 10:00:00,45.8,36.9,30.18,NNE,22,0.0,5.0,71,0.00,,,-99.99,330,WeatherLink 5.7,2013-01-04 18:00:00,
2013-01-04 10:09:00,38.2,37.4,30.21,West,281,0.0,0.0,97,0.00,,,0.00,,Wunderground v.1.13,2013-01-04 18:09:00,
2013-01-04 10:15:00,47.7,36.5,30.17,ENE,67,0.0,2.0,65,0.00,,,-99.99,110,WeatherLink 5.7,2013-01-04 18:15:00,
2013-01-04 10:19:00,39.3,38.5,30.20,West,281,0.0,0.0,97,0.00,,,0.00,,Wunderground v.1.13,2013-01-04 18:19:00,
2013-01-04 10:24:00,39.9,39.1,30.20,West,281,0.0,0.0,97,0.00,,,0.00,,Wunderground v.1.13,2013-01-04 18:24:00,
2013-01-04 10:29:00,40.6,39.8,30.20,West,281,0.0,0.0,97,0.00,,,0.00,,Wunderground v.1.13,2013-01-04 18:29:00,
2013-01-04 10:30:00,48.9,35.6,30.17,ENE,67,1.0,4.0,60,0.00,,,-99.99,50,WeatherLink 5.7,2013-01-04 18:30:00,
2013-01-04 10:34:00,41.3,40.5,30.20,West,277,0.0,0.0,97,0.00,,,0.00,,Wunderground v.1.13,2013-01-04 18:34:00,
2013-01-04 10:39:00,42.1,41.3,30.20,West,277,0.0,0.0,97,0.00,,,0.00,,Wunderground v.1.13,2013-01-04 18:39:00,
2013-01-04 10:45:00,50.1,35.4,30.16,East,90,1.0,3.0,57,0.00,,,-99.99,41,WeatherLink 5.7,2013-01-04 18:45:00,
2013-01-04 10:49:00,43.8,39.0,30.19,NNE,16,0.0,0.0,83,0.00,,,0.00,,Wunderground v.1.13,2013-01-04 18:49:00,
2013-01-04 10:54:00,44.8,38.7,30.19,NNE,16,0.0,0.0,79,0.00,,,0.00,,Wunderground v.1.13,2013-01-04 18:54:00,
2013-01-04 10:59:00,45.8,37.3,30.18,NE,42,0.0,0.0,72,0.00,,,0.00,,Wunderground v.1.13,2013-01-04 18:59:00,
2013-01-04 11:00:00,51.0,33.5,30.15,East,90,1.0,4.0,51,0.00,,,-99.99,98,WeatherLink 5.7,2013-01-04 19:00:00,
2013-01-04 11:09:00,47.3,36.9,30.18,ENE,69,0.0,0.0,67,0.00,,,0.00,,Wunderground v.1.13,2013-01-04 19:09:00,
2013-01-04 11:14:00,47.7,36.1,30.17,ENE,69,0.0,0.0,64,0.00,,,0.00,,Wunderground v.1.13,2013-01-04 19:14:00,
2013-01-04 11:15:00,51.7,33.6,30.15,East,90,1.0,5.0,50,0.00,,,-99.99,71,WeatherLink 5.7,2013-01-04 19:15:00,
2013-01-04 11:24:00,48.6,36.2,30.17,NNE,19,0.0,0.0,62,0.00,,,0.00,,Wunderground v.1.13,2013-01-04 19:24:00,
2013-01-04 11:29:00,48.9,36.4,30.17,East,85,1.0,3.0,62,0.00,,,0.00,,Wunderground v.1.13,2013-01-04 19:29:00,
2013-01-04 11:30:00,52.0,33.4,30.14,East,90,1.0,4.0,49,0.00,,,-99.99,34,WeatherLink 5.7,2013-01-04 19:30:00,
2013-01-04 11:39:00,49.8,35.2,30.17,ENE,76,1.0,1.0,57,0.00,,,0.00,,Wunderground v.1.13,2013-01-04 19:39:00,
2013-01-04 11:44:00,49.9,34.8,30.17,West,267,1.0,1.0,56,0.00,,,0.00,,Wunderground v.1.13,2013-01-04 19:44:00,
2013-01-04 11:45:00,52.3,33.7,30.14,WNW,292,1.0,6.0,49,0.00,,,-99.99,30,WeatherLink 5.7,2013-01-04 19:45:00,
2013-01-04 11:49:00,50.2,34.2,30.16,East,90,1.0,1.0,54,0.00,,,0.00,,Wunderground v.1.13,2013-01-04 19:49:00,
2013-01-04 11:59:00,50.8,33.3,30.16,East,98,1.0,1.0,51,0.00,,,0.00,,Wunderground v.1.13,2013-01-04 19:59:00,
2013-01-04 12:00:00,52.5,32.8,30.12,East,90,1.0,6.0,47,0.00,,,-99.99,37,WeatherLink 5.7,2013-01-04 20:00:00,
2013-01-04 12:04:00,51.1,33.1,30.15,East,86,1.0,1.0,50,0.00,,,0.00,,Wunderground v.1.13,2013-01-04 20:04:00,
2013-01-04 12:09:00,51.4,33.9,30.15,NNW,341,1.0,1.0,51,0.00,,,0.00,,Wunderground v.1.13,2013-01-04 20:09:00,
2013-01-04 12:14:00,51.6,33.6,30.15,East,94,1.0,3.0,50,0.00,,,0.00,,Wunderground v.1.13,2013-01-04 20:14:00,
2013-01-04 12:15:00,52.9,32.1,30.12,East,90,1.0,6.0,45,0.00,,,-99.99,28,WeatherLink 5.7,2013-01-04 20:15:00,
2013-01-04 12:19:00,51.7,33.6,30.15,East,88,1.0,2.0,50,0.00,,,0.00,,Wunderground v.1.13,2013-01-04 20:19:00,
2013-01-04 12:24:00,51.9,33.8,30.15,East,100,1.0,2.0,50,0.00,,,0.00,,Wunderground v.1.13,2013-01-04 20:24:00,
2013-01-04 12:30:00,53.2,32.4,30.11,ENE,67,1.0,5.0,45,0.00,,,-99.99,26,WeatherLink 5.7,2013-01-04 20:30:00,
2013-01-04 12:34:00,52.0,33.9,30.14,NE,50,1.0,1.0,50,0.00,,,0.00,,Wunderground v.1.13,2013-01-04 20:34:00,
2013-01-04 12:39:00,52.0,33.9,30.14,North,360,1.0,2.0,50,0.00,,,0.00,,Wunderground v.1.13,2013-01-04 20:39:00,
2013-01-04 12:44:00,52.3,33.7,30.14,NNW,332,1.0,1.0,49,0.00,,,0.00,,Wunderground v.1.13,2013-01-04 20:44:00,
2013-01-04 12:45:00,53.2,32.4,30.11,NNW,337,1.0,5.0,45,0.00,,,-99.99,25,WeatherLink 5.7,2013-01-04 20:45:00,
2013-01-04 12:49:00,52.3,34.2,30.14,NNE,19,1.0,1.0,50,0.00,,,0.00,,Wunderground v.1.13,2013-01-04 20:49:00,
2013-01-04 12:54:00,52.5,33.4,30.14,North,5,1.0,1.0,48,0.00,,,0.00,,Wunderground v.1.13,2013-01-04 20:54:00,
2013-01-04 12:59:00,52.5,32.8,30.13,East,80,1.0,1.0,47,0.00,,,0.00,,Wunderground v.1.13,2013-01-04 20:59:00,
2013-01-04 13:00:00,53.3,33.0,30.11,NW,315,1.0,5.0,46,0.00,,,-99.99,25,WeatherLink 5.7,2013-01-04 21:00:00,
2013-01-04 13:04:00,52.5,32.3,30.13,NNW,327,1.0,2.0,46,0.00,,,0.00,,Wunderground v.1.13,2013-01-04 21:04:00,
2013-01-04 13:09:00,52.8,32.0,30.13,NNW,331,1.0,1.0,45,0.00,,,0.00,,Wunderground v.1.13,2013-01-04 21:09:00,
2013-01-04 13:15:00,53.3,32.5,30.10,East,90,1.0,3.0,45,0.00,,,-99.99,24,WeatherLink 5.7,2013-01-04 21:15:00,
2013-01-04 13:19:00,52.9,32.1,30.12,ENE,70,2.0,2.0,45,0.00,,,0.00,,Wunderground v.1.13,2013-01-04 21:19:00,
2013-01-04 13:24:00,53.1,31.7,30.12,ENE,71,1.0,1.0,44,0.00,,,0.00,,Wunderground v.1.13,2013-01-04 21:24:00,
2013-01-04 13:29:00,53.2,31.8,30.12,East,88,1.0,1.0,44,0.00,,,0.00,,Wunderground v.1.13,2013-01-04 21:29:00,
2013-01-04 13:30:00,53.6,33.3,30.10,NE,45,1.0,4.0,46,0.00,,,-99.99,21,WeatherLink 5.7,2013-01-04 21:30:00,
2013-01-04 13:34:00,53.2,32.4,30.11,East,86,1.0,1.0,45,0.00,,,0.00,,Wunderground v.1.13,2013-01-04 21:34:00,
2013-01-04 13:44:00,53.2,31.8,30.11,North,360,1.0,2.0,44,0.00,,,0.00,,Wunderground v.1.13,2013-01-04 21:44:00,
2013-01-04 13:45:00,53.8,32.9,30.10,East,90,1.0,4.0,45,0.00,,,-99.99,21,WeatherLink 5.7,2013-01-04 21:45:00,
2013-01-04 13:49:00,53.3,32.5,30.11,NW,324,1.0,1.0,45,0.00,,,0.00,,Wunderground v.1.13,2013-01-04 21:49:00,
2013-01-04 13:54:00,53.3,32.5,30.11,West,280,1.0,1.0,45,0.00,,,0.00,,Wunderground v.1.13,2013-01-04 21:54:00,
2013-01-04 13:59:00,53.3,33.0,30.11,WNW,300,1.0,1.0,46,0.00,,,0.00,,Wunderground v.1.13,2013-01-04 21:59:00,
2013-01-04 14:00:00,53.9,33.6,30.09,East,90,1.0,3.0,46,0.00,,,-99.99,19,WeatherLink 5.7,2013-01-04 22:00:00,
2013-01-04 14:09:00,53.3,32.5,30.11,NNE,30,0.0,1.0,45,0.00,,,0.00,,Wunderground v.1.13,2013-01-04 22:09:00,
2013-01-04 14:15:00,53.9,33.6,30.10,East,90,1.0,4.0,46,0.00,,,-99.99,19,WeatherLink 5.7,2013-01-04 22:15:00,
2013-01-04 14:19:00,53.5,33.2,30.10,ENE,60,1.0,1.0,46,0.00,,,0.00,,Wunderground v.1.13,2013-01-04 22:19:00,
2013-01-04 14:24:00,53.5,33.2,30.10,NNW,342,1.0,1.0,46,0.00,,,0.00,,Wunderground v.1.13,2013-01-04 22:24:00,
2013-01-04 14:29:00,53.6,32.8,30.10,WNW,294,1.0,1.0,45,0.00,,,0.00,,Wunderground v.1.13,2013-01-04 22:29:00,
2013-01-04 14:30:00,53.5,34.3,30.09,NNE,22,0.0,2.0,48,0.00,,,-99.99,19,WeatherLink 5.7,2013-01-04 22:30:00,
2013-01-04 14:34:00,53.6,33.3,30.10,WNW,301,1.0,1.0,46,0.00,,,0.00,,Wunderground v.1.13,2013-01-04 22:34:00,
2013-01-04 14:39:00,53.6,32.8,30.10,NW,323,1.0,2.0,45,0.00,,,0.00,,Wunderground v.1.13,2013-01-04 22:39:00,
2013-01-04 14:45:00,53.3,34.6,30.09,NNW,337,0.0,3.0,49,0.00,,,-99.99,18,WeatherLink 5.7,2013-01-04 22:45:00,
2013-01-04 14:49:00,53.8,33.5,30.10,NNE,14,1.0,2.0,46,0.00,,,0.00,,Wunderground v.1.13,2013-01-04 22:49:00,
2013-01-04 14:54:00,53.9,33.6,30.10,NW,319,1.0,2.0,46,0.00,,,0.00,,Wunderground v.1.13,2013-01-04 22:54:00,
2013-01-04 14:59:00,53.9,33.6,30.09,ENE,74,1.0,1.0,46,0.00,,,0.00,,Wunderground v.1.13,2013-01-04 22:59:00,
2013-01-04 15:00:00,52.9,34.2,30.09,North,0,0.0,3.0,49,0.00,,,-99.99,16,WeatherLink 5.7,2013-01-04 23:00:00,
2013-01-04 15:09:00,53.9,33.6,30.09,East,84,1.0,1.0,46,0.00,,,0.00,,Wunderground v.1.13,2013-01-04 23:09:00,
2013-01-04 15:14:00,53.9,33.6,30.10,East,87,1.0,1.0,46,0.00,,,0.00,,Wunderground v.1.13,2013-01-04 23:14:00,
2013-01-04 15:15:00,52.6,35.0,30.09,NNE,22,0.0,2.0,51,0.00,,,-99.99,13,WeatherLink 5.7,2013-01-04 23:15:00,
2013-01-04 15:24:00,53.8,34.6,30.10,NNE,26,0.0,0.0,48,0.00,,,0.00,,Wunderground v.1.13,2013-01-04 23:24:00,
2013-01-04 15:29:00,53.6,34.4,30.09,NNE,26,0.0,0.0,48,0.00,,,0.00,,Wunderground v.1.13,2013-01-04 23:29:00,
2013-01-04 15:30:00,51.7,36.0,30.10,ENE,67,0.0,1.0,55,0.00,,,-99.99,10,WeatherLink 5.7,2013-01-04 23:30:00,
2013-01-04 15:39:00,53.3,34.1,30.09,NNW,334,0.0,0.0,48,0.00,,,0.00,,Wunderground v.1.13,2013-01-04 23:39:00,
2013-01-04 15:44:00,53.3,34.1,30.09,NNW,333,0.0,2.0,48,0.00,,,0.00,,Wunderground v.1.13,2013-01-04 23:44:00,
2013-01-04 15:45:00,50.2,37.3,30.10,North,-999,0.0,0.0,61,0.00,,,-99.99,7,WeatherLink 5.7,2013-01-04 23:45:00,
2013-01-04 15:49:00,53.3,34.6,30.09,NW,323,0.0,0.0,49,0.00,,,0.00,,Wunderground v.1.13,2013-01-04 23:49:00,
2013-01-04 15:59:00,52.9,34.2,30.09,North,11,0.0,0.0,49,0.00,,,0.00,,Wunderground v.1.13,2013-01-04 23:59:00,
2013-01-04 16:00:00,48.5,37.3,30.10,North,-999,0.0,0.0,65,0.00,,,-99.99,2,WeatherLink 5.7,2013-01-05 00:00:00,
2013-01-04 16:04:00,52.9,34.8,30.09,NNE,30,0.0,0.0,50,0.00,,,0.00,,Wunderground v.1.13,2013-01-05 00:04:00,
2013-01-04 16:09:00,52.8,34.7,30.09,ENE,70,0.0,0.0,50,0.00,,,0.00,,Wunderground v.1.13,2013-01-05 00:09:00,
2013-01-04 16:14:00,52.6,35.0,30.09,ENE,65,0.0,0.0,51,0.00,,,0.00,,Wunderground v.1.13,2013-01-05 00:14:00,
2013-01-04 16:15:00,46.8,36.4,30.10,North,-999,0.0,0.0,67,0.00,,,-99.99,0,WeatherLink 5.7,2013-01-05 00:15:00,
2013-01-04 16:19:00,52.5,34.9,30.09,ENE,65,0.0,0.0,51,0.00,,,0.00,,Wunderground v.1.13,2013-01-05 00:19:00,
2013-01-04 16:24:00,52.2,35.1,30.09,ENE,65,0.0,0.0,52,0.00,,,0.00,,Wunderground v.1.13,2013-01-05 00:24:00,
2013-01-04 16:30:00,45.5,35.9,30.11,North,-999,0.0,0.0,69,0.00,,,-99.99,0,WeatherLink 5.7,2013-01-05 00:30:00,
2013-01-04 16:34:00,51.4,35.8,30.10,ENE,65,0.0,0.0,55,0.00,,,0.00,,Wunderground v.1.13,2013-01-05 00:34:00,
2013-01-04 16:39:00,51.0,36.7,30.10,ENE,65,0.0,0.0,58,0.00,,,0.00,,Wunderground v.1.13,2013-01-05 00:39:00,
2013-01-04 16:44:00,50.4,36.6,30.10,ENE,65,0.0,0.0,59,0.00,,,0.00,,Wunderground v.1.13,2013-01-05 00:44:00,
2013-01-04 16:45:00,44.2,35.4,30.11,North,-999,0.0,0.0,71,0.00,,,-99.99,0,WeatherLink 5.7,2013-01-05 00:45:00,
2013-01-04 16:49:00,49.8,37.3,30.10,ENE,65,0.0,0.0,62,0.00,,,0.00,,Wunderground v.1.13,2013-01-05 00:49:00,
2013-01-04 16:54:00,49.2,37.1,30.10,ENE,65,0.0,0.0,63,0.00,,,0.00,,Wunderground v.1.13,2013-01-05 00:54:00,
2013-01-04 16:59:00,48.6,37.0,30.10,ENE,65,0.0,0.0,64,0.00,,,0.00,,Wunderground v.1.13,2013-01-05 00:59:00,
2013-01-04 17:00:00,43.3,35.6,30.11,North,-999,0.0,0.0,74,0.00,,,-99.99,0,WeatherLink 5.7,2013-01-05 01:00:00,
2013-01-04 17:04:00,48.0,37.2,30.10,ENE,65,0.0,0.0,66,0.00,,,0.00,,Wunderground v.1.13,2013-01-05 01:04:00,
2013-01-04 17:09:00,47.4,36.6,30.10,ENE,65,0.0,0.0,66,0.00,,,0.00,,Wunderground v.1.13,2013-01-05 01:09:00,
2013-01-04 17:15:00,42.5,35.5,30.12,North,-999,0.0,0.0,76,0.00,,,-99.99,0,WeatherLink 5.7,2013-01-05 01:15:00,
2013-01-04 17:19:00,46.5,36.9,30.10,ENE,65,0.0,0.0,69,0.00,,,0.00,,Wunderground v.1.13,2013-01-05 01:19:00,
2013-01-04 17:24:00,46.0,36.4,30.10,ENE,65,0.0,0.0,69,0.00,,,0.00,,Wunderground v.1.13,2013-01-05 01:24:00,
2013-01-04 17:29:00,45.7,36.1,30.10,ENE,65,0.0,0.0,69,0.00,,,0.00,,Wunderground v.1.13,2013-01-05 01:29:00,
2013-01-04 17:30:00,41.6,34.9,30.12,North,-999,0.0,0.0,77,0.00,,,-99.99,0,WeatherLink 5.7,2013-01-05 01:30:00,
2013-01-04 17:34:00,45.1,35.9,30.11,ENE,65,0.0,0.0,70,0.00,,,0.00,,Wunderground v.1.13,2013-01-05 01:34:00,
2013-01-04 17:44:00,44.3,35.5,30.11,ENE,65,0.0,0.0,71,0.00,,,0.00,,Wunderground v.1.13,2013-01-05 01:44:00,
2013-01-04 17:45:00,41.1,35.4,30.13,North,-999,0.0,0.0,80,0.00,,,-99.99,0,WeatherLink 5.7,2013-01-05 01:45:00,
2013-01-04 17:49:00,43.9,35.5,30.11,ENE,65,0.0,0.0,72,0.00,,,0.00,,Wunderground v.1.13,2013-01-05 01:49:00,
2013-01-04 17:54:00,43.6,35.9,30.11,ENE,65,0.0,0.0,74,0.00,,,0.00,,Wunderground v.1.13,2013-01-05 01:54:00,
2013-01-04 17:59:00,43.3,35.6,30.11,ENE,65,0.0,0.0,74,0.00,,,0.00,,Wunderground v.1.13,2013-01-05 01:59:00,
2013-01-04 18:00:00,40.6,35.2,30.13,North,-999,0.0,0.0,81,0.00,,,-99.99,0,WeatherLink 5.7,2013-01-05 02:00:00,
2013-01-04 18:09:00,42.8,35.4,30.11,ENE,65,0.0,0.0,75,0.00,,,0.00,,Wunderground v.1.13,2013-01-05 02:09:00,
2013-01-04 18:15:00,39.9,34.9,30.13,North,-999,0.0,0.0,82,0.00,,,-99.99,0,WeatherLink 5.7,2013-01-05 02:15:00,
2013-01-04 18:19:00,42.2,35.2,30.12,ENE,65,0.0,0.0,76,0.00,,,0.00,,Wunderground v.1.13,2013-01-05 02:19:00,
2013-01-04 18:24:00,41.9,34.9,30.12,ENE,65,0.0,0.0,76,0.00,,,0.00,,Wunderground v.1.13,2013-01-05 02:24:00,
2013-01-04 18:29:00,41.6,34.9,30.12,ENE,65,0.0,0.0,77,0.00,,,0.00,,Wunderground v.1.13,2013-01-05 02:29:00,
2013-01-04 18:30:00,39.5,34.8,30.14,North,-999,0.0,0.0,83,0.00,,,-99.99,0,WeatherLink 5.7,2013-01-05 02:30:00,
2013-01-04 18:39:00,41.2,35.2,30.12,ENE,65,0.0,0.0,79,0.00,,,0.00,,Wunderground v.1.13,2013-01-05 02:39:00,
2013-01-04 18:44:00,41.1,35.4,30.13,ENE,65,0.0,0.0,80,0.00,,,0.00,,Wunderground v.1.13,2013-01-05 02:44:00,
2013-01-04 18:45:00,38.9,34.5,30.14,North,-999,0.0,0.0,84,0.00,,,-99.99,0,WeatherLink 5.7,2013-01-05 02:45:00,
2013-01-04 18:49:00,40.9,35.2,30.13,ENE,65,0.0,0.0,80,0.00,,,0.00,,Wunderground v.1.13,2013-01-05 02:49:00,
2013-01-04 18:54:00,40.8,35.4,30.13,ENE,65,0.0,0.0,81,0.00,,,0.00,,Wunderground v.1.13,2013-01-05 02:54:00,
2013-01-04 18:59:00,40.6,35.2,30.13,ENE,65,0.0,0.0,81,0.00,,,0.00,,Wunderground v.1.13,2013-01-05 02:59:00,
2013-01-04 19:00:00,38.3,33.9,30.14,North,-999,0.0,0.0,84,0.00,,,-99.99,0,WeatherLink 5.7,2013-01-05 03:00:00,
2013-01-04 19:04:00,40.3,34.9,30.13,ENE,65,0.0,0.0,81,0.00,,,0.00,,Wunderground v.1.13,2013-01-05 03:04:00,
2013-01-04 19:09:00,40.2,34.8,30.13,ENE,65,0.0,0.0,81,0.00,,,0.00,,Wunderground v.1.13,2013-01-05 03:09:00,
2013-01-04 19:14:00,39.9,34.9,30.13,ENE,65,0.0,0.0,82,0.00,,,0.00,,Wunderground v.1.13,2013-01-05 03:14:00,
2013-01-04 19:15:00,37.9,34.1,30.14,North,-999,0.0,0.0,86,0.00,,,-99.99,0,WeatherLink 5.7,2013-01-05 03:15:00,
2013-01-04 19:19:00,39.8,34.8,30.13,ENE,65,0.0,0.0,82,0.00,,,0.00,,Wunderground v.1.13,2013-01-05 03:19:00,
2013-01-04 19:24:00,39.6,34.9,30.13,ENE,65,0.0,0.0,83,0.00,,,0.00,,Wunderground v.1.13,2013-01-05 03:24:00,
2013-01-04 19:29:00,39.5,34.8,30.14,ENE,65,0.0,0.0,83,0.00,,,0.00,,Wunderground v.1.13,2013-01-05 03:29:00,
2013-01-04 19:30:00,37.6,34.4,30.14,North,-999,0.0,0.0,88,0.00,,,-99.99,0,WeatherLink 5.7,2013-01-05 03:30:00,
2013-01-04 19:39:00,39.2,34.8,30.14,ENE,65,0.0,0.0,84,0.00,,,0.00,,Wunderground v.1.13,2013-01-05 03:39:00,
2013-01-04 19:44:00,38.9,34.5,30.14,ENE,65,0.0,0.0,84,0.00,,,0.00,,Wunderground v.1.13,2013-01-05 03:44:00,
2013-01-04 19:45:00,37.3,34.1,30.15,North,-999,0.0,0.0,88,0.00,,,-99.99,0,WeatherLink 5.7,2013-01-05 03:45:00,
2013-01-04 19:49:00,38.8,34.4,30.14,ENE,65,0.0,0.0,84,0.00,,,0.00,,Wunderground v.1.13,2013-01-05 03:49:00,
2013-01-04 19:54:00,38.5,34.1,30.14,ENE,65,0.0,0.0,84,0.00,,,0.00,,Wunderground v.1.13,2013-01-05 03:54:00,
2013-01-04 19:59:00,38.3,33.9,30.14,ENE,65,0.0,0.0,84,0.00,,,0.00,,Wunderground v.1.13,2013-01-05 03:59:00,
2013-01-04 20:00:00,37.2,34.3,30.15,North,-999,0.0,0.0,89,0.00,,,-99.99,0,WeatherLink 5.7,2013-01-05 04:00:00,
2013-01-04 20:09:00,38.0,33.9,30.14,ENE,65,0.0,0.0,85,0.00,,,0.00,,Wunderground v.1.13,2013-01-05 04:09:00,
2013-01-04 20:14:00,37.9,34.1,30.14,ENE,65,0.0,0.0,86,0.00,,,0.00,,Wunderground v.1.13,2013-01-05 04:14:00,
2013-01-04 20:15:00,36.9,34.0,30.16,North,-999,0.0,0.0,89,0.00,,,-99.99,0,WeatherLink 5.7,2013-01-05 04:15:00,
2013-01-04 20:19:00,37.8,34.3,30.14,ENE,65,0.0,0.0,87,0.00,,,0.00,,Wunderground v.1.13,2013-01-05 04:19:00,
2013-01-04 20:29:00,37.6,34.4,30.14,ENE,65,0.0,0.0,88,0.00,,,0.00,,Wunderground v.1.13,2013-01-05 04:29:00,
2013-01-04 20:30:00,36.5,33.6,30.16,North,-999,0.0,0.0,89,0.00,,,-99.99,0,WeatherLink 5.7,2013-01-05 04:30:00,
2013-01-04 20:34:00,37.6,34.4,30.14,ENE,65,0.0,0.0,88,0.00,,,0.00,,Wunderground v.1.13,2013-01-05 04:34:00,
2013-01-04 20:39:00,37.5,34.3,30.14,ENE,65,0.0,0.0,88,0.00,,,0.00,,Wunderground v.1.13,2013-01-05 04:39:00,
2013-01-04 20:45:00,36.3,33.6,30.16,North,-999,0.0,0.0,90,0.00,,,-99.99,0,WeatherLink 5.7,2013-01-05 04:45:00,
2013-01-04 20:49:00,37.3,34.4,30.15,ENE,65,0.0,0.0,89,0.00,,,0.00,,Wunderground v.1.13,2013-01-05 04:49:00,
2013-01-04 20:54:00,37.3,34.4,30.15,ENE,65,0.0,0.0,89,0.00,,,0.00,,Wunderground v.1.13,2013-01-05 04:54:00,
2013-01-04 20:59:00,37.2,34.3,30.15,ENE,65,0.0,0.0,89,0.00,,,0.00,,Wunderground v.1.13,2013-01-05 04:59:00,
2013-01-04 21:00:00,36.0,33.4,30.16,North,-999,0.0,0.0,90,0.00,,,-99.99,0,WeatherLink 5.7,2013-01-05 05:00:00,
2013-01-04 21:04:00,37.2,34.3,30.15,ENE,65,0.0,0.0,89,0.00,,,0.00,,Wunderground v.1.13,2013-01-05 05:04:00,
2013-01-04 21:09:00,37.0,34.1,30.15,ENE,65,0.0,0.0,89,0.00,,,0.00,,Wunderground v.1.13,2013-01-05 05:09:00,
2013-01-04 21:14:00,36.9,34.0,30.16,ENE,65,0.0,0.0,89,0.00,,,0.00,,Wunderground v.1.13,2013-01-05 05:14:00,
2013-01-04 21:15:00,35.6,33.0,30.16,North,-999,0.0,0.0,90,0.00,,,-99.99,0,WeatherLink 5.7,2013-01-05 05:15:00,
2013-01-04 21:24:00,36.6,33.7,30.16,ENE,65,0.0,0.0,89,0.00,,,0.00,,Wunderground v.1.13,2013-01-05 05:24:00,
2013-01-04 21:29:00,36.5,33.6,30.16,ENE,65,0.0,0.0,89,0.00,,,0.00,,Wunderground v.1.13,2013-01-05 05:29:00,
2013-01-04 21:30:00,35.2,32.6,30.16,North,-999,0.0,0.0,90,0.00,,,-99.99,0,WeatherLink 5.7,2013-01-05 05:30:00,
2013-01-04 21:39:00,36.3,33.4,30.16,ENE,65,0.0,0.0,89,0.00,,,0.00,,Wunderground v.1.13,2013-01-05 05:39:00,
2013-01-04 21:44:00,36.3,33.6,30.16,ENE,65,0.0,0.0,90,0.00,,,0.00,,Wunderground v.1.13,2013-01-05 05:44:00,
2013-01-04 21:45:00,35.0,32.6,30.16,North,-999,0.0,0.0,91,0.00,,,-99.99,0,WeatherLink 5.7,2013-01-05 05:45:00,
2013-01-04 21:49:00,36.2,33.5,30.16,ENE,65,0.0,0.0,90,0.00,,,0.00,,Wunderground v.1.13,2013-01-05 05:49:00,
2013-01-04 21:59:00,36.0,33.4,30.16,ENE,65,0.0,0.0,90,0.00,,,0.00,,Wunderground v.1.13,2013-01-05 05:59:00,
2013-01-04 22:00:00,34.9,32.5,30.17,North,-999,0.0,0.0,91,0.00,,,-99.99,0,WeatherLink 5.7,2013-01-05 06:00:00,
2013-01-04 22:04:00,35.9,33.3,30.16,ENE,65,0.0,0.0,90,0.00,,,0.00,,Wunderground v.1.13,2013-01-05 06:04:00,
2013-01-04 22:09:00,35.8,33.2,30.16,ENE,65,0.0,0.0,90,0.00,,,0.00,,Wunderground v.1.13,2013-01-05 06:09:00,
2013-01-04 22:14:00,35.6,33.0,30.16,ENE,65,0.0,0.0,90,0.00,,,0.00,,Wunderground v.1.13,2013-01-05 06:14:00,
2013-01-04 22:15:00,34.6,32.2,30.17,North,-999,0.0,0.0,91,0.00,,,-99.99,0,WeatherLink 5.7,2013-01-05 06:15:00,
2013-01-04 22:19:00,35.5,32.9,30.16,ENE,65,0.0,0.0,90,0.00,,,0.00,,Wunderground v.1.13,2013-01-05 06:19:00,
2013-01-04 22:24:00,35.3,32.7,30.16,ENE,65,0.0,0.0,90,0.00,,,0.00,,Wunderground v.1.13,2013-01-05 06:24:00,
2013-01-04 22:30:00,34.3,32.2,30.17,North,-999,0.0,0.0,92,0.00,,,-99.99,0,WeatherLink 5.7,2013-01-05 06:30:00,
2013-01-04 22:34:00,35.2,32.6,30.16,ENE,65,0.0,0.0,90,0.00,,,0.00,,Wunderground v.1.13,2013-01-05 06:34:00,
2013-01-04 22:39:00,35.0,32.4,30.16,ENE,65,0.0,0.0,90,0.00,,,0.00,,Wunderground v.1.13,2013-01-05 06:39:00,
2013-01-04 22:44:00,35.0,32.6,30.16,ENE,65,0.0,0.0,91,0.00,,,0.00,,Wunderground v.1.13,2013-01-05 06:44:00,
2013-01-04 22:45:00,34.3,32.2,30.16,North,-999,0.0,0.0,92,0.00,,,-99.99,0,WeatherLink 5.7,2013-01-05 06:45:00,
2013-01-04 22:49:00,35.0,32.6,30.16,ENE,65,0.0,0.0,91,0.00,,,0.00,,Wunderground v.1.13,2013-01-05 06:49:00,
2013-01-04 22:54:00,34.9,32.5,30.16,ENE,65,0.0,0.0,91,0.00,,,0.00,,Wunderground v.1.13,2013-01-05 06:54:00,
2013-01-04 22:59:00,34.9,32.5,30.17,ENE,65,0.0,0.0,91,0.00,,,0.00,,Wunderground v.1.13,2013-01-05 06:59:00,
2013-01-04 23:00:00,34.0,31.9,30.15,North,-999,0.0,0.0,92,0.00,,,-99.99,0,WeatherLink 5.7,2013-01-05 07:00:00,
2013-01-04 23:04:00,34.9,32.5,30.17,ENE,65,0.0,0.0,91,0.00,,,0.00,,Wunderground v.1.13,2013-01-05 07:04:00,
2013-01-04 23:09:00,34.7,32.3,30.17,ENE,65,0.0,0.0,91,0.00,,,0.00,,Wunderground v.1.13,2013-01-05 07:09:00,
2013-01-04 23:14:00,34.6,32.2,30.17,ENE,65,0.0,0.0,91,0.00,,,0.00,,Wunderground v.1.13,2013-01-05 07:14:00,
2013-01-04 23:15:00,33.7,31.6,30.15,North,-999,0.0,0.0,92,0.00,,,-99.99,0,WeatherLink 5.7,2013-01-05 07:15:00,
2013-01-04 23:19:00,34.6,32.2,30.17,ENE,65,0.0,0.0,91,0.00,,,0.00,,Wunderground v.1.13,2013-01-05 07:19:00,
2013-01-04 23:24:00,34.4,32.0,30.17,ENE,65,0.0,0.0,91,0.00,,,0.00,,Wunderground v.1.13,2013-01-05 07:24:00,
2013-01-04 23:29:00,34.3,32.2,30.17,ENE,65,0.0,0.0,92,0.00,,,0.00,,Wunderground v.1.13,2013-01-05 07:29:00,
2013-01-04 23:30:00,33.5,31.4,30.15,North,-999,0.0,0.0,92,0.00,,,-99.99,0,WeatherLink 5.7,2013-01-05 07:30:00,
2013-01-04 23:39:00,34.3,32.2,30.17,ENE,65,0.0,0.0,92,0.00,,,0.00,,Wunderground v.1.13,2013-01-05 07:39:00,
2013-01-04 23:44:00,34.3,32.2,30.16,ENE,65,0.0,0.0,92,0.00,,,0.00,,Wunderground v.1.13,2013-01-05 07:44:00,
2013-01-04 23:45:00,33.4,31.3,30.15,North,-999,0.0,0.0,92,0.00,,,-99.99,0,WeatherLink 5.7,2013-01-05 07:45:00,
2013-01-04 23:49:00,34.1,32.0,30.16,ENE,65,0.0,0.0,92,0.00,,,0.00,,Wunderground v.1.13,2013-01-05 07:49:00,
2013-01-04 23:54:00,34.1,32.0,30.16,ENE,65,0.0,0.0,92,0.00,,,0.00,,Wunderground v.1.13,2013-01-05 07:54:00,
2013-01-04 23:59:00,34.0,31.9,30.15,ENE,65,0.0,0.0,92,0.00,,,0.00,,Wunderground v.1.13,2013-01-05 07:59:00,